createdAt,value
2018-03-19T00:00:07.433Z,1.50
2018-03-19T00:02:33.644Z,1.27
2018-03-19T00:04:59.794Z,1.27
2018-03-19T00:07:26.890Z,1.20
2018-03-19T00:09:53.108Z,1.27
2018-03-19T00:12:19.263Z,1.47
2018-03-19T00:14:45.457Z,1.23
2018-03-19T00:17:11.733Z,1.47
2018-03-19T00:19:37.888Z,1.30
2018-03-19T00:22:04.090Z,1.30
2018-03-19T00:24:30.241Z,1.37
2018-03-19T00:26:56.441Z,1.87
2018-03-19T00:29:22.598Z,1.40
2018-03-19T00:31:48.776Z,1.27
2018-03-19T00:34:14.988Z,1.17
2018-03-19T00:36:41.525Z,1.30
2018-03-19T00:39:07.771Z,1.40
2018-03-19T00:41:34.186Z,1.13
2018-03-19T00:44:00.347Z,1.10
2018-03-19T00:46:26.849Z,1.20
2018-03-19T00:48:52.988Z,1.10
2018-03-19T00:51:19.141Z,1.50
2018-03-19T00:53:45.317Z,1.50
2018-03-19T00:56:11.471Z,1.30
2018-03-19T00:58:37.649Z,1.23
2018-03-19T01:01:03.836Z,1.27
2018-03-19T01:03:30.350Z,1.27
2018-03-19T01:05:56.541Z,1.40
2018-03-19T01:08:22.717Z,1.50
2018-03-19T01:10:48.910Z,1.30
2018-03-19T01:13:15.124Z,1.20
2018-03-19T01:15:41.341Z,1.40
2018-03-19T01:18:07.817Z,1.50
2018-03-19T01:20:34.017Z,1.40
2018-03-19T01:23:00.167Z,1.53
2018-03-19T01:25:26.367Z,1.40
2018-03-19T01:27:52.557Z,1.13
2018-03-19T01:30:18.777Z,1.20
2018-03-19T01:32:44.952Z,1.30
2018-03-19T01:35:11.180Z,1.20
2018-03-19T01:37:37.437Z,1.20
2018-03-19T01:40:03.597Z,1.40
2018-03-19T01:42:29.796Z,1.30
2018-03-19T01:44:56.219Z,1.30
2018-03-19T01:47:22.402Z,1.20
2018-03-19T01:49:48.530Z,1.37
2018-03-19T01:52:14.830Z,1.30
2018-03-19T01:54:40.981Z,1.43
2018-03-19T01:57:07.157Z,1.23
2018-03-19T01:59:33.699Z,1.93
2018-03-19T02:01:59.904Z,1.23
2018-03-19T02:04:26.080Z,1.50
2018-03-19T02:06:52.474Z,1.47
2018-03-19T02:09:18.652Z,1.50
2018-03-19T02:11:44.823Z,1.60
2018-03-19T02:14:11.003Z,1.30
2018-03-19T02:16:37.143Z,1.30
2018-03-19T02:19:03.323Z,1.20
2018-03-19T02:21:29.459Z,1.30
2018-03-19T02:23:55.650Z,1.40
2018-03-19T02:26:21.833Z,1.20
2018-03-19T02:28:48.014Z,1.30
2018-03-19T02:31:14.196Z,1.27
2018-03-19T02:33:40.437Z,1.10
2018-03-19T02:36:06.645Z,1.37
2018-03-19T02:38:32.824Z,1.10
2018-03-19T02:40:59.040Z,1.50
2018-03-19T02:43:25.262Z,1.13
2018-03-19T02:45:51.420Z,1.63
2018-03-19T02:48:17.607Z,1.27
2018-03-19T02:50:43.773Z,1.50
2018-03-19T02:53:09.970Z,1.60
2018-03-19T02:55:36.136Z,1.50
2018-03-19T02:58:02.345Z,1.30
2018-03-19T03:00:28.535Z,1.30
2018-03-19T03:02:54.730Z,1.30
2018-03-19T03:05:20.932Z,1.40
2018-03-19T03:07:47.120Z,1.47
2018-03-19T03:10:13.350Z,1.20
2018-03-19T03:12:39.524Z,1.10
2018-03-19T03:15:06.052Z,1.40
2018-03-19T03:17:32.223Z,1.40
2018-03-19T03:19:58.618Z,1.30
2018-03-19T03:22:24.861Z,1.20
2018-03-19T03:24:51.040Z,1.23
2018-03-19T03:27:17.212Z,1.27
2018-03-19T03:29:43.420Z,1.30
2018-03-19T03:32:09.585Z,1.63
2018-03-19T03:34:35.776Z,1.47
2018-03-19T03:37:01.964Z,1.50
2018-03-19T03:39:28.141Z,1.40
2018-03-19T03:41:54.333Z,1.40
2018-03-19T03:44:20.790Z,1.40
2018-03-19T03:46:46.951Z,1.57
2018-03-19T03:49:13.138Z,1.10
2018-03-19T03:51:39.295Z,1.37
2018-03-19T03:54:05.808Z,1.20
2018-03-19T03:56:31.976Z,1.20
2018-03-19T03:58:58.144Z,1.37
2018-03-19T04:01:24.343Z,1.10
2018-03-19T04:03:50.508Z,1.33
2018-03-19T04:06:17.044Z,1.30
2018-03-19T04:08:43.194Z,1.33
2018-03-19T04:11:09.707Z,1.37
2018-03-19T04:13:36.142Z,1.40
2018-03-19T04:16:02.305Z,1.23
2018-03-19T04:18:28.466Z,1.40
2018-03-19T04:20:54.632Z,1.73
2018-03-19T04:23:20.852Z,1.10
2018-03-19T04:25:47.020Z,1.30
2018-03-19T04:28:13.224Z,1.30
2018-03-19T04:30:39.376Z,1.30
2018-03-19T04:33:05.861Z,1.20
2018-03-19T04:35:32.016Z,1.60
2018-03-19T04:37:58.277Z,1.10
2018-03-19T04:40:24.524Z,1.20
2018-03-19T04:42:50.985Z,1.53
2018-03-19T04:45:17.188Z,1.10
2018-03-19T04:47:43.342Z,1.50
2018-03-19T04:50:09.540Z,1.40
2018-03-19T04:52:35.684Z,1.17
2018-03-19T04:55:01.892Z,1.40
2018-03-19T04:57:28.196Z,1.43
2018-03-19T04:59:54.686Z,1.50
2018-03-19T05:02:20.864Z,1.60
2018-03-19T05:04:47.340Z,1.40
2018-03-19T05:07:13.516Z,1.20
2018-03-19T05:09:39.771Z,1.27
2018-03-19T05:12:05.935Z,1.50
2018-03-19T05:14:32.361Z,1.03
2018-03-19T05:16:58.599Z,1.30
2018-03-19T05:19:24.769Z,1.50
2018-03-19T05:21:50.984Z,1.43
2018-03-19T05:24:17.146Z,1.40
2018-03-19T05:26:43.709Z,1.60
2018-03-19T05:29:09.891Z,1.60
2018-03-19T05:31:36.064Z,1.43
2018-03-19T05:34:02.259Z,1.30
2018-03-19T05:36:28.724Z,1.20
2018-03-19T05:38:55.257Z,1.33
2018-03-19T05:41:21.445Z,1.30
2018-03-19T05:43:47.609Z,1.30
2018-03-19T05:46:14.043Z,1.30
2018-03-19T05:48:40.220Z,1.20
2018-03-19T05:51:06.413Z,1.70
2018-03-19T05:53:32.632Z,1.43
2018-03-19T05:55:58.802Z,1.40
2018-03-19T05:58:24.948Z,1.70
2018-03-19T06:00:51.150Z,1.83
2018-03-19T06:03:17.638Z,1.30
2018-03-19T06:05:44.172Z,1.20
2018-03-19T06:08:10.325Z,1.20
2018-03-19T06:10:36.492Z,1.30
2018-03-19T06:13:02.686Z,1.20
2018-03-19T06:15:28.889Z,1.93
2018-03-19T06:17:55.048Z,1.30
2018-03-19T06:20:21.200Z,1.13
2018-03-19T06:22:47.417Z,1.83
2018-03-19T06:25:13.601Z,1.50
2018-03-19T06:27:40.128Z,1.63
2018-03-19T06:30:06.291Z,1.37
2018-03-19T06:32:32.497Z,1.40
2018-03-19T06:34:58.908Z,1.60
2018-03-19T06:37:25.095Z,1.87
2018-03-19T06:39:51.349Z,1.67
2018-03-19T06:42:17.905Z,1.30
2018-03-19T06:44:44.094Z,1.40
2018-03-19T06:47:10.247Z,1.30
2018-03-19T06:49:36.435Z,1.30
2018-03-19T06:52:02.613Z,1.57
2018-03-19T06:54:29.043Z,1.57
2018-03-19T06:56:55.582Z,1.53
2018-03-19T06:59:21.840Z,1.30
2018-03-19T07:01:48.108Z,1.60
2018-03-19T07:04:14.289Z,1.40
2018-03-19T07:06:40.471Z,1.67
2018-03-19T07:09:07.027Z,1.50
2018-03-19T07:11:33.200Z,1.47
2018-03-19T07:13:59.415Z,1.53
2018-03-19T07:16:25.612Z,1.20
2018-03-19T07:18:51.832Z,1.57
2018-03-19T07:21:18.113Z,1.40
2018-03-19T07:23:44.315Z,1.90
2018-03-19T07:26:10.546Z,1.60
2018-03-19T07:28:36.783Z,1.50
2018-03-19T07:31:02.949Z,1.40
2018-03-19T07:33:29.522Z,1.57
2018-03-19T07:35:55.753Z,1.73
2018-03-19T07:38:21.943Z,1.57
2018-03-19T07:40:48.512Z,1.50
2018-03-19T07:43:14.728Z,1.40
2018-03-19T07:45:40.908Z,1.50
2018-03-19T07:48:07.107Z,1.30
2018-03-19T07:50:33.286Z,1.70
2018-03-19T07:52:59.473Z,1.40
2018-03-19T07:55:25.972Z,1.53
2018-03-19T07:57:52.238Z,1.67
2018-03-19T08:00:18.405Z,1.70
2018-03-19T08:02:44.595Z,1.40
2018-03-19T08:05:10.804Z,1.60
2018-03-19T08:07:37.055Z,1.43
2018-03-19T08:10:03.204Z,1.73
2018-03-19T08:12:29.378Z,1.80
2018-03-19T08:14:55.547Z,1.60
2018-03-19T08:17:21.745Z,1.90
2018-03-19T08:19:48.042Z,1.63
2018-03-19T08:22:14.257Z,1.97
2018-03-19T08:24:40.430Z,1.60
2018-03-19T08:27:06.768Z,2.10
2018-03-19T08:29:32.935Z,1.97
2018-03-19T08:31:59.186Z,1.40
2018-03-19T08:34:25.625Z,1.70
2018-03-19T08:36:51.845Z,1.40
2018-03-19T08:39:18.057Z,1.90
2018-03-19T08:41:44.275Z,1.90
2018-03-19T08:44:10.550Z,1.30
2018-03-19T08:46:36.738Z,2.20
2018-03-19T08:49:02.975Z,1.70
2018-03-19T08:51:29.173Z,1.73
2018-03-19T08:53:55.342Z,1.80
2018-03-19T08:56:21.526Z,1.70
2018-03-19T08:58:48.009Z,1.30
2018-03-19T09:01:14.237Z,1.43
2018-03-19T09:03:40.448Z,1.67
2018-03-19T09:06:07.007Z,1.67
2018-03-19T09:08:33.160Z,2.00
2018-03-19T09:10:59.662Z,1.60
2018-03-19T09:13:26.094Z,1.80
2018-03-19T09:15:52.579Z,2.00
2018-03-19T09:18:18.771Z,1.60
2018-03-19T09:20:44.948Z,2.23
2018-03-19T09:23:11.204Z,1.57
2018-03-19T09:25:37.403Z,1.43
2018-03-19T09:28:03.542Z,1.40
2018-03-19T09:30:29.747Z,1.90
2018-03-19T09:32:56.234Z,1.70
2018-03-19T09:35:22.414Z,1.90
2018-03-19T09:37:48.633Z,2.10
2018-03-19T09:40:15.122Z,2.20
2018-03-19T09:42:41.287Z,1.90
2018-03-19T09:45:07.781Z,1.80
2018-03-19T09:47:34.213Z,1.60
2018-03-19T09:50:00.424Z,1.70
2018-03-19T09:52:26.661Z,1.60
2018-03-19T09:54:52.844Z,1.70
2018-03-19T09:57:19.070Z,1.67
2018-03-19T09:59:45.241Z,2.03
2018-03-19T10:02:11.420Z,2.37
2018-03-19T10:04:37.633Z,1.80
2018-03-19T10:07:03.861Z,2.20
2018-03-19T10:09:30.052Z,1.63
2018-03-19T10:11:56.232Z,1.57
2018-03-19T10:14:22.441Z,1.83
2018-03-19T10:16:48.950Z,1.90
2018-03-19T10:19:15.160Z,1.90
2018-03-19T10:21:41.382Z,2.10
2018-03-19T10:24:07.592Z,2.13
2018-03-19T10:26:33.745Z,1.47
2018-03-19T10:29:00.004Z,1.40
2018-03-19T10:31:26.526Z,1.83
2018-03-19T10:33:52.718Z,1.97
2018-03-19T10:36:18.977Z,1.90
2018-03-19T10:38:45.165Z,2.07
2018-03-19T10:41:11.844Z,2.03
2018-03-19T10:43:38.008Z,1.97
2018-03-19T10:46:04.244Z,2.10
2018-03-19T10:48:30.466Z,2.13
2018-03-19T10:50:56.961Z,1.90
2018-03-19T10:53:23.167Z,2.20
2018-03-19T10:55:49.730Z,1.97
2018-03-19T10:58:15.954Z,1.57
2018-03-19T11:00:42.485Z,1.57
2018-03-19T11:03:08.692Z,1.60
2018-03-19T11:05:40.868Z,1.60
2018-03-19T11:08:08.849Z,1.73
2018-03-19T11:10:35.051Z,1.77
2018-03-19T11:13:01.262Z,1.70
2018-03-19T11:15:27.847Z,1.90
2018-03-19T11:17:54.125Z,2.40
2018-03-19T11:20:20.312Z,1.60
2018-03-19T11:22:46.568Z,1.83
2018-03-19T11:25:12.745Z,1.67
2018-03-19T11:27:39.189Z,1.60
2018-03-19T11:30:05.393Z,1.80
2018-03-19T11:32:31.849Z,1.93
2018-03-19T11:34:58.073Z,1.70
2018-03-19T11:37:24.250Z,1.77
2018-03-19T11:39:50.467Z,1.47
2018-03-19T11:42:16.777Z,2.00
2018-03-19T11:44:43.029Z,1.40
2018-03-19T11:47:09.243Z,2.10
2018-03-19T11:49:35.757Z,2.00
2018-03-19T11:52:01.963Z,1.97
2018-03-19T11:54:28.135Z,1.67
2018-03-19T11:56:54.356Z,2.07
2018-03-19T11:59:20.549Z,2.10
2018-03-19T12:01:46.717Z,1.87
2018-03-19T12:04:12.926Z,1.60
2018-03-19T12:06:39.116Z,1.73
2018-03-19T12:09:05.412Z,1.73
2018-03-19T12:11:31.697Z,1.93
2018-03-19T12:13:58.152Z,1.63
2018-03-19T12:16:24.349Z,2.40
2018-03-19T12:18:50.559Z,1.90
2018-03-19T12:21:16.743Z,1.57
2018-03-19T12:23:43.258Z,2.00
2018-03-19T12:26:09.482Z,1.83
2018-03-19T12:28:35.693Z,1.90
2018-03-19T12:31:01.958Z,2.00
2018-03-19T12:33:28.206Z,1.67
2018-03-19T12:35:54.387Z,1.43
2018-03-19T12:38:20.577Z,1.83
2018-03-19T12:40:46.782Z,1.87
2018-03-19T12:43:12.968Z,1.80
2018-03-19T12:45:39.224Z,1.80
2018-03-19T12:48:05.402Z,1.60
2018-03-19T12:50:31.651Z,1.63
2018-03-19T12:52:57.822Z,1.67
2018-03-19T12:55:23.993Z,1.50
2018-03-19T12:57:50.204Z,1.70
2018-03-19T13:00:16.410Z,1.57
2018-03-19T13:02:42.604Z,1.53
2018-03-19T13:05:08.833Z,1.73
2018-03-19T13:07:35.408Z,2.03
2018-03-19T13:10:01.596Z,1.77
2018-03-19T13:12:27.750Z,2.00
2018-03-19T13:14:53.924Z,2.13
2018-03-19T13:17:20.115Z,1.93
2018-03-19T13:19:46.608Z,1.73
2018-03-19T13:22:12.804Z,1.50
2018-03-19T13:24:39.407Z,1.60
2018-03-19T13:27:05.618Z,1.70
2018-03-19T13:29:31.831Z,1.80
2018-03-19T13:31:58.363Z,1.53
2018-03-19T13:34:24.543Z,1.80
2018-03-19T13:36:50.733Z,1.50
2018-03-19T13:39:16.905Z,2.00
2018-03-19T13:41:43.228Z,1.93
2018-03-19T13:44:09.418Z,1.90
2018-03-19T13:46:35.582Z,1.70
2018-03-19T13:49:01.797Z,1.70
2018-03-19T13:51:27.965Z,1.57
2018-03-19T13:53:54.154Z,1.67
2018-03-19T13:56:20.653Z,1.77
2018-03-19T13:58:46.843Z,1.70
2018-03-19T14:01:13.081Z,1.60
2018-03-19T14:03:39.249Z,1.80
2018-03-19T14:06:05.447Z,1.70
2018-03-19T14:08:31.603Z,1.90
2018-03-19T14:10:57.831Z,1.70
2018-03-19T14:13:24.011Z,1.67
2018-03-19T14:15:50.162Z,1.70
2018-03-19T14:18:16.380Z,1.77
2018-03-19T14:20:42.820Z,1.57
2018-03-19T14:23:08.960Z,1.53
2018-03-19T14:25:35.179Z,1.70
2018-03-19T14:28:01.365Z,1.50
2018-03-19T14:30:27.604Z,1.60
2018-03-19T14:32:53.782Z,1.50
2018-03-19T14:35:20.189Z,1.40
2018-03-19T14:37:46.450Z,1.83
2018-03-19T14:40:12.652Z,1.30
2018-03-19T14:42:39.085Z,1.77
2018-03-19T14:45:05.276Z,2.00
2018-03-19T14:47:31.471Z,1.80
2018-03-19T14:49:57.686Z,1.73
2018-03-19T14:52:23.872Z,1.40
2018-03-19T14:54:50.320Z,1.67
2018-03-19T14:57:16.492Z,1.77
2018-03-19T14:59:42.723Z,1.60
2018-03-19T15:02:08.919Z,1.80
2018-03-19T15:04:35.233Z,2.00
2018-03-19T15:07:01.400Z,1.63
2018-03-19T15:09:27.609Z,1.80
2018-03-19T15:11:53.776Z,1.70
2018-03-19T15:14:19.971Z,1.70
2018-03-19T15:16:46.485Z,1.90
2018-03-19T15:19:12.682Z,1.53
2018-03-19T15:21:38.950Z,1.83
2018-03-19T15:24:05.167Z,1.40
2018-03-19T15:26:31.344Z,1.57
2018-03-19T15:28:57.594Z,1.90
2018-03-19T15:31:24.065Z,1.90
2018-03-19T15:33:50.244Z,1.93
2018-03-19T15:36:16.442Z,1.90
2018-03-19T15:38:42.627Z,1.70
2018-03-19T15:41:08.842Z,1.90
2018-03-19T15:43:35.312Z,1.53
2018-03-19T15:46:07.655Z,1.70
2018-03-19T15:48:33.914Z,1.90
2018-03-19T15:51:00.099Z,1.77
2018-03-19T15:53:26.560Z,1.93
2018-03-19T15:55:52.741Z,1.90
2018-03-19T15:58:19.189Z,1.87
2018-03-19T16:00:45.421Z,2.00
2018-03-19T16:03:11.628Z,1.60
2018-03-19T16:05:37.809Z,1.70
2018-03-19T16:08:04.015Z,1.70
2018-03-19T16:10:30.172Z,2.00
2018-03-19T16:12:56.696Z,2.13
2018-03-19T16:15:22.861Z,1.53
2018-03-19T16:17:49.003Z,1.60
2018-03-19T16:20:15.186Z,1.60
2018-03-19T16:22:41.352Z,2.20
2018-03-19T16:25:07.524Z,2.23
2018-03-19T16:27:33.952Z,1.53
2018-03-19T16:30:00.345Z,1.50
2018-03-19T16:32:26.507Z,1.73
2018-03-19T16:34:52.706Z,1.60
2018-03-19T16:37:19.177Z,1.60
2018-03-19T16:39:45.325Z,1.93
2018-03-19T16:42:11.558Z,2.30
2018-03-19T16:44:37.719Z,1.60
2018-03-19T16:47:03.958Z,2.00
2018-03-19T16:49:30.137Z,2.33
2018-03-19T16:51:56.301Z,2.07
2018-03-19T16:54:22.505Z,2.33
2018-03-19T16:56:49.006Z,1.87
2018-03-19T16:59:15.217Z,2.03
2018-03-19T17:01:41.392Z,1.77
2018-03-19T17:04:14.489Z,2.10
2018-03-19T17:06:40.671Z,1.83
2018-03-19T17:09:06.900Z,1.80
2018-03-19T17:11:33.208Z,1.90
2018-03-19T17:13:59.412Z,2.30
2018-03-19T17:16:25.634Z,1.67
2018-03-19T17:18:51.871Z,1.90
2018-03-19T17:21:18.275Z,1.80
2018-03-19T17:23:44.461Z,1.83
2018-03-19T17:26:10.907Z,1.87
2018-03-19T17:28:37.117Z,2.10
2018-03-19T17:31:03.272Z,1.80
2018-03-19T17:33:29.447Z,1.97
2018-03-19T17:35:56.028Z,2.00
2018-03-19T17:38:22.238Z,1.87
2018-03-19T17:40:48.640Z,2.03
2018-03-19T17:43:14.854Z,1.93
2018-03-19T17:45:41.348Z,2.13
2018-03-19T17:48:07.590Z,1.90
2018-03-19T17:50:34.109Z,2.00
2018-03-19T17:53:00.542Z,1.63
2018-03-19T17:55:26.745Z,1.77
2018-03-19T17:57:53.199Z,1.80
2018-03-19T18:02:51.192Z,2.03
2018-03-19T18:05:17.616Z,1.83
2018-03-19T18:07:43.800Z,2.20
2018-03-19T18:10:09.971Z,2.23
2018-03-19T18:12:36.511Z,1.80
2018-03-19T18:15:02.677Z,1.90
2018-03-19T18:17:28.886Z,1.63
2018-03-19T18:19:55.085Z,1.57
2018-03-19T18:22:21.305Z,2.23
2018-03-19T18:24:47.463Z,1.53
2018-03-19T18:27:13.631Z,1.90
2018-03-19T18:29:39.856Z,1.57
2018-03-19T18:32:06.015Z,1.70
2018-03-19T18:34:32.241Z,2.37
2018-03-19T18:36:58.441Z,1.53
2018-03-19T18:39:24.630Z,1.67
2018-03-19T18:41:50.827Z,2.13
2018-03-19T18:44:17.112Z,2.10
2018-03-19T18:46:43.399Z,1.90
2018-03-19T18:49:09.847Z,1.67
2018-03-19T18:51:36.095Z,1.63
2018-03-19T18:54:02.280Z,1.70
2018-03-19T18:56:28.498Z,1.50
2018-03-19T18:58:54.943Z,1.93
2018-03-19T19:01:21.153Z,2.10
2018-03-19T19:03:47.609Z,2.00
2018-03-19T19:06:13.806Z,2.10
2018-03-19T19:08:39.970Z,2.40
2018-03-19T19:11:06.148Z,2.60
2018-03-19T19:13:32.345Z,2.23
2018-03-19T19:15:58.537Z,2.10
2018-03-19T19:18:24.733Z,1.70
2018-03-19T19:20:50.918Z,1.60
2018-03-19T19:23:17.439Z,1.77
2018-03-19T19:25:43.612Z,2.07
2018-03-19T19:28:09.825Z,1.80
2018-03-19T19:30:35.981Z,1.80
2018-03-19T19:33:02.194Z,2.27
2018-03-19T19:35:28.407Z,2.10
2018-03-19T19:37:54.593Z,1.87
2018-03-19T19:40:20.748Z,2.13
2018-03-19T19:42:46.955Z,1.83
2018-03-19T19:45:13.119Z,2.00
2018-03-19T19:47:39.398Z,2.10
2018-03-19T19:50:05.553Z,1.70
2018-03-19T19:52:32.070Z,1.83
2018-03-19T19:54:58.275Z,1.90
2018-03-19T19:57:24.467Z,2.00
2018-03-19T19:59:50.692Z,2.30
2018-03-19T20:02:16.931Z,2.57
2018-03-19T20:04:43.156Z,2.47
2018-03-19T20:07:09.752Z,3.20
2018-03-19T20:09:36.178Z,3.17
2018-03-19T20:12:02.508Z,2.53
2018-03-19T20:14:28.661Z,3.23
2018-03-19T20:16:54.867Z,2.77
2018-03-19T20:19:21.073Z,3.10
2018-03-19T20:21:47.298Z,2.73
2018-03-19T20:24:13.470Z,2.70
2018-03-19T20:26:39.635Z,3.00
2018-03-19T20:29:05.831Z,2.63
2018-03-19T20:31:31.998Z,3.70
2018-03-19T20:33:58.463Z,3.33
2018-03-19T20:36:24.629Z,3.00
2018-03-19T20:38:50.813Z,3.43
2018-03-19T20:41:16.986Z,2.80
2018-03-19T20:43:43.224Z,2.93
2018-03-19T20:46:09.501Z,3.17
2018-03-19T20:48:35.897Z,5.33
2018-03-19T20:51:02.090Z,3.00
2018-03-19T20:53:30.688Z,3.40
2018-03-19T20:55:57.004Z,3.40
2018-03-19T20:58:23.242Z,3.33
2018-03-19T21:00:49.412Z,3.70
2018-03-19T21:03:15.584Z,3.07
2018-03-19T21:05:41.784Z,3.70
2018-03-19T21:08:07.949Z,3.13
2018-03-19T21:10:34.349Z,3.00
2018-03-19T21:13:00.535Z,2.80
2018-03-19T21:15:26.945Z,2.53
2018-03-19T21:17:53.135Z,2.40
2018-03-19T21:20:19.315Z,3.33
2018-03-19T21:22:45.500Z,2.83
2018-03-19T21:25:11.707Z,2.97
2018-03-19T21:27:37.916Z,2.90
2018-03-19T21:30:04.138Z,2.97
2018-03-19T21:32:30.314Z,3.27
2018-03-19T21:34:56.476Z,2.60
2018-03-19T21:37:22.946Z,3.33
2018-03-19T21:39:49.129Z,3.30
2018-03-19T21:42:15.308Z,3.50
2018-03-19T21:47:13.377Z,4.20
2018-03-19T21:49:39.530Z,2.40
2018-03-19T21:52:06.053Z,2.60
2018-03-19T21:54:32.596Z,3.37
2018-03-19T21:56:59.127Z,2.70
2018-03-19T21:59:25.328Z,2.40
2018-03-19T22:01:51.488Z,3.03
2018-03-19T22:04:17.668Z,2.70
2018-03-19T22:06:43.831Z,2.60
2018-03-19T22:09:10.031Z,3.07
2018-03-19T22:11:36.496Z,2.97
2018-03-19T22:14:02.930Z,2.90
2018-03-19T22:16:29.186Z,2.43
2018-03-19T22:18:55.590Z,2.60
2018-03-19T22:21:21.735Z,2.17
2018-03-19T22:23:47.961Z,2.43
2018-03-19T22:26:14.123Z,2.77
2018-03-19T22:28:40.282Z,2.70
2018-03-19T22:31:06.468Z,2.30
2018-03-19T22:33:32.656Z,2.53
2018-03-19T22:35:58.833Z,3.00
2018-03-19T22:38:25.067Z,3.07
2018-03-19T22:40:51.235Z,2.50
2018-03-19T22:43:17.772Z,2.50
2018-03-19T22:45:43.993Z,2.57
2018-03-19T22:48:10.537Z,2.60
2018-03-19T22:50:36.789Z,2.30
2018-03-19T22:53:02.948Z,2.57
2018-03-19T22:55:29.115Z,2.57
2018-03-19T22:57:55.307Z,2.90
2018-03-19T23:00:21.565Z,2.87
2018-03-19T23:02:47.715Z,2.30
2018-03-19T23:05:22.289Z,2.70
2018-03-19T23:07:48.457Z,3.10
2018-03-19T23:10:14.985Z,2.77
2018-03-19T23:12:41.416Z,2.37
2018-03-19T23:15:07.564Z,2.47
2018-03-19T23:17:33.793Z,3.17
2018-03-19T23:19:59.979Z,3.33
2018-03-19T23:22:27.010Z,2.40
2018-03-19T23:24:53.202Z,3.03
2018-03-19T23:27:19.715Z,3.40
2018-03-19T23:29:46.240Z,2.30
2018-03-19T23:32:12.512Z,3.13
2018-03-19T23:34:38.722Z,2.80
2018-03-19T23:37:05.236Z,2.60
2018-03-19T23:39:31.430Z,2.63
2018-03-19T23:41:57.613Z,2.90
2018-03-19T23:44:23.842Z,2.57
2018-03-19T23:46:50.008Z,3.50
2018-03-19T23:49:16.212Z,2.33
2018-03-19T23:51:42.430Z,2.70
2018-03-19T23:54:08.684Z,2.47
2018-03-19T23:56:34.853Z,2.43
2018-03-19T23:59:01.075Z,2.70
